Time;durP1;ratioP1;P1;durP2;ratioP2;P2;SDS_P1;SDS_P2;PMS_P1;PMS_P2;Temp;Humidity;BMP_temperature;BMP_pressure;BME280_temperature;BME280_humidity;BME280_pressure;Samples;Min_cycle;Max_cycle;Signal;HPM_P1;HPM_P2
2023/05/12 00:00:09;;;;;;;14.57;8.00;;;9.50;99.90;;;;;;7587638;19;20022;-76
2023/05/12 00:02:46;;;;;;;14.43;8.77;;;9.50;99.90;;;;;;7586336;19;20018;-76
2023/05/12 00:05:19;;;;;;;17.10;9.00;;;9.50;99.90;;;;;;7579463;19;20356;-76
2023/05/12 00:07:51;;;;;;;14.90;7.97;;;9.60;99.90;;;;;;7586802;19;21205;-77
2023/05/12 00:10:27;;;;;;;20.13;10.45;;;9.60;99.90;;;;;;7586468;19;20014;-76
2023/05/12 00:13:00;;;;;;;14.55;8.10;;;9.60;99.90;;;;;;7589562;19;20081;-77
2023/05/12 00:15:32;;;;;;;14.75;8.98;;;9.60;99.90;;;;;;7582273;19;20026;-77
2023/05/12 00:18:04;;;;;;;14.38;8.10;;;9.60;99.90;;;;;;7588960;19;20927;-77
2023/05/12 00:20:37;;;;;;;14.20;7.95;;;9.60;99.90;;;;;;7595137;19;20477;-77
2023/05/12 00:23:10;;;;;;;15.38;9.05;;;9.50;99.90;;;;;;7578591;19;20022;-77
2023/05/12 00:25:42;;;;;;;15.23;9.50;;;9.50;99.90;;;;;;7574320;19;20104;-77
2023/05/12 00:28:15;;;;;;;17.13;8.98;;;9.40;99.90;;;;;;7587014;19;20061;-76
2023/05/12 00:30:47;;;;;;;28.52;13.35;;;9.40;99.90;;;;;;7580871;19;20017;-76
2023/05/12 00:33:19;;;;;;;23.40;12.02;;;9.40;99.90;;;;;;7593036;19;20090;-76
2023/05/12 00:35:51;;;;;;;24.17;13.10;;;9.40;99.90;;;;;;7585111;19;20101;-76
2023/05/12 00:38:24;;;;;;;23.48;12.23;;;9.40;99.90;;;;;;7589544;19;20018;-76
2023/05/12 00:40:56;;;;;;;20.35;10.85;;;9.40;99.90;;;;;;7581342;19;20022;-77
2023/05/12 00:43:30;;;;;;;24.15;12.82;;;9.40;99.90;;;;;;7591921;19;20064;-76
2023/05/12 00:46:03;;;;;;;;;;;9.40;99.90;;;;;;7583341;19;20007;-76
2023/05/12 00:48:37;;;;;;;25.10;12.43;;;9.40;99.90;;;;;;7605641;19;19933;-76
2023/05/12 00:51:11;;;;;;;22.35;12.23;;;9.40;99.90;;;;;;7597777;19;20356;-76
2023/05/12 00:53:43;;;;;;;32.00;14.27;;;9.30;99.90;;;;;;7573349;19;20006;-76
2023/05/12 00:56:20;;;;;;;29.67;14.02;;;9.40;99.90;;;;;;7595954;19;20030;-77
2023/05/12 00:58:54;;;;;;;24.33;13.23;;;9.40;99.90;;;;;;7592376;19;20648;-77
2023/05/12 01:01:26;;;;;;;43.80;16.98;;;9.40;99.90;;;;;;7589454;19;20022;-76
2023/05/12 01:04:00;;;;;;;22.02;12.73;;;9.40;99.90;;;;;;7586449;19;20712;-77
2023/05/12 01:06:42;;;;;;;29.50;14.38;;;9.30;99.90;;;;;;7591845;19;20023;-77
2023/05/12 01:09:16;;;;;;;23.35;12.13;;;9.40;99.90;;;;;;7584120;19;20022;-76
2023/05/12 01:11:48;;;;;;;21.92;11.70;;;9.40;99.90;;;;;;7587166;19;20013;-77
2023/05/12 01:14:22;;;;;;;25.73;12.95;;;9.40;99.90;;;;;;7598182;19;20701;-77
2023/05/12 01:16:58;;;;;;;54.17;18.03;;;9.30;99.90;;;;;;7587754;19;20082;-77
2023/05/12 01:19:41;;;;;;;32.10;14.60;;;9.30;99.90;;;;;;7593451;19;20700;-77
2023/05/12 01:22:15;;;;;;;50.00;15.02;;;9.30;99.90;;;;;;7583469;19;20123;-76
2023/05/12 01:24:57;;;;;;;31.70;14.35;;;9.20;99.90;;;;;;7569918;19;21243;-76
2023/05/12 01:27:33;;;;;;;33.42;15.45;;;9.20;99.90;;;;;;7581886;19;20022;-76
2023/05/12 01:30:08;;;;;;;27.30;14.70;;;9.20;99.90;;;;;;7567588;19;20116;-76
2023/05/12 01:32:41;;;;;;;42.65;17.13;;;9.30;99.90;;;;;;7587536;19;20064;-78
2023/05/12 01:35:13;;;;;;;34.53;16.23;;;9.20;99.90;;;;;;7589522;19;20014;-77
2023/05/12 01:37:51;;;;;;;31.50;15.45;;;9.20;99.90;;;;;;7593014;19;20018;-76
2023/05/12 01:40:24;;;;;;;52.17;18.33;;;9.10;99.90;;;;;;7574529;19;21492;-77
2023/05/12 01:42:57;;;;;;;;;;;9.20;99.90;;;;;;7583440;19;20971;-77
2023/05/12 01:45:34;;;;;;;28.48;13.60;;;9.20;99.90;;;;;;7566115;19;19918;-76
2023/05/12 01:48:06;;;;;;;28.75;13.88;;;9.20;99.90;;;;;;7553576;19;20051;-76
2023/05/12 01:50:41;;;;;;;34.95;14.70;;;9.10;99.90;;;;;;7579607;19;20056;-76
2023/05/12 01:53:18;;;;;;;30.48;13.88;;;9.10;99.90;;;;;;7593811;19;20014;-76
2023/05/12 01:55:50;;;;;;;46.40;16.20;;;9.10;99.90;;;;;;7566924;19;20256;-76
2023/05/12 01:58:23;;;;;;;40.75;15.52;;;9.10;99.90;;;;;;7594968;19;20006;-76
2023/05/12 02:00:55;;;;;;;29.00;13.23;;;9.10;99.90;;;;;;7582192;19;20444;-76
2023/05/12 02:03:28;;;;;;;73.60;16.33;;;9.10;99.90;;;;;;7582596;19;20656;-76
2023/05/12 02:06:01;;;;;;;27.60;13.65;;;9.00;99.90;;;;;;7578662;19;20184;-76
2023/05/12 02:08:33;;;;;;;29.58;12.20;;;9.00;99.90;;;;;;7577202;19;20017;-76
2023/05/12 02:11:07;;;;;;;58.45;17.17;;;8.90;99.90;;;;;;7562127;19;20018;-76
2023/05/12 02:13:41;;;;;;;33.15;13.20;;;8.90;99.90;;;;;;7586059;19;20022;-76
2023/05/12 02:16:13;;;;;;;34.53;13.52;;;8.80;99.90;;;;;;7562093;19;20094;-77
2023/05/12 02:18:46;;;;;;;66.07;18.98;;;8.70;99.90;;;;;;7584272;19;21180;-76
2023/05/12 02:21:19;;;;;;;23.73;11.23;;;8.60;99.90;;;;;;7571090;19;20057;-76
2023/05/12 02:23:51;;;;;;;27.70;11.80;;;8.50;99.90;;;;;;7578388;19;20010;-77
2023/05/12 02:26:24;;;;;;;31.67;13.20;;;8.50;99.90;;;;;;7565382;19;20019;-77
2023/05/12 02:28:57;;;;;;;;;;;8.50;99.90;;;;;;7548967;19;20127;-77
2023/05/12 02:31:29;;;;;;;36.97;12.15;;;8.40;99.90;;;;;;7541216;19;19915;-76
2023/05/12 02:34:02;;;;;;;53.90;15.63;;;8.40;99.90;;;;;;7543913;19;21200;-76
2023/05/12 02:36:37;;;;;;;37.53;14.00;;;8.50;99.90;;;;;;7575384;19;20705;-76
2023/05/12 02:39:10;;;;;;;45.97;13.73;;;8.40;99.90;;;;;;7555506;19;20019;-76
2023/05/12 02:41:42;;;;;;;53.92;14.90;;;8.40;99.90;;;;;;7555064;19;21145;-77
2023/05/12 02:44:16;;;;;;;36.88;15.07;;;8.40;99.90;;;;;;7593063;19;20022;-76
2023/05/12 02:46:49;;;;;;;25.60;12.98;;;8.40;99.90;;;;;;7586223;19;20019;-76
2023/05/12 02:49:21;;;;;;;30.67;15.00;;;8.50;99.90;;;;;;7554483;19;20048;-76
2023/05/12 02:51:54;;;;;;;35.05;14.80;;;8.60;99.90;;;;;;7585656;19;20344;-76
2023/05/12 02:54:26;;;;;;;33.38;14.48;;;8.60;99.90;;;;;;7569966;19;21520;-76
2023/05/12 02:57:03;;;;;;;32.42;14.88;;;8.70;99.90;;;;;;7571625;19;20022;-75
2023/05/12 02:59:36;;;;;;;39.13;16.52;;;8.70;99.90;;;;;;7604098;19;20597;-76
2023/05/12 03:02:08;;;;;;;35.72;15.80;;;8.70;99.90;;;;;;7601769;19;20010;-76
2023/05/12 03:04:42;;;;;;;29.45;13.75;;;8.70;99.90;;;;;;7597996;19;20010;-76
2023/05/12 03:07:15;;;;;;;26.95;13.05;;;8.70;99.90;;;;;;7594097;19;20026;-76
2023/05/12 03:09:47;;;;;;;32.00;13.50;;;8.80;99.90;;;;;;7588493;19;20019;-76
2023/05/12 03:12:20;;;;;;;34.70;15.02;;;8.80;99.90;;;;;;7600188;19;20018;-75
2023/05/12 03:14:53;;;;;;;38.17;15.40;;;8.80;99.90;;;;;;7595061;19;20014;-76
2023/05/12 03:17:26;;;;;;;30.33;13.97;;;8.80;99.90;;;;;;7597203;19;20018;-76
2023/05/12 03:19:58;;;;;;;46.60;16.40;;;8.80;99.90;;;;;;7599647;19;20015;-76
2023/05/12 03:22:31;;;;;;;44.28;15.82;;;8.80;99.90;;;;;;7599061;19;20025;-76
2023/05/12 03:25:05;;;;;;;32.80;14.32;;;8.90;99.90;;;;;;7590729;19;20018;-76
2023/05/12 03:27:37;;;;;;;24.40;12.43;;;8.90;99.90;;;;;;7602412;19;20022;-76
2023/05/12 03:30:11;;;;;;;29.67;13.98;;;8.90;99.90;;;;;;7584912;19;20123;-76
2023/05/12 03:32:45;;;;;;;;;;;8.90;99.90;;;;;;7599701;19;20022;-76
2023/05/12 03:35:18;;;;;;;27.98;13.50;;;8.80;99.90;;;;;;7599058;19;19918;-76
2023/05/12 03:37:52;;;;;;;33.83;14.73;;;8.90;99.90;;;;;;7599319;19;20126;-76
2023/05/12 03:40:25;;;;;;;33.55;14.82;;;8.90;99.90;;;;;;7596205;19;20026;-76
2023/05/12 03:42:57;;;;;;;26.27;13.45;;;8.80;99.90;;;;;;7596562;19;20429;-76
2023/05/12 03:45:30;;;;;;;34.70;14.80;;;8.90;99.90;;;;;;7598765;19;20027;-76
2023/05/12 03:48:02;;;;;;;26.27;13.13;;;8.90;99.90;;;;;;7595566;19;20018;-76
2023/05/12 03:50:35;;;;;;;28.58;14.30;;;8.90;99.90;;;;;;7602332;19;20034;-75
2023/05/12 03:53:07;;;;;;;33.78;14.73;;;8.90;99.90;;;;;;7596785;19;20346;-76
2023/05/12 03:55:40;;;;;;;31.25;14.13;;;9.00;99.90;;;;;;7597766;19;20018;-75
2023/05/12 03:58:14;;;;;;;35.88;15.05;;;9.00;99.90;;;;;;7600977;19;20006;-76
2023/05/12 04:00:49;;;;;;;36.22;15.90;;;9.00;99.90;;;;;;7598345;19;20048;-76
2023/05/12 04:03:21;;;;;;;;;;;9.00;99.90;;;;;;7595937;19;20025;-76
2023/05/12 04:05:59;;;;;;;32.95;15.23;;;8.90;99.90;;;;;;7595222;19;21003;-76
2023/05/12 04:08:32;;;;;;;32.15;15.63;;;8.90;99.90;;;;;;7593493;19;20018;-76
2023/05/12 04:11:04;;;;;;;42.90;17.38;;;8.90;99.90;;;;;;7595367;19;20015;-75
2023/05/12 04:13:37;;;;;;;44.13;16.45;;;8.90;99.90;;;;;;7599364;19;20808;-76
2023/05/12 04:16:09;;;;;;;65.20;19.88;;;8.90;99.90;;;;;;7592638;19;20634;-76
2023/05/12 04:18:42;;;;;;;54.38;19.88;;;8.90;99.90;;;;;;7598606;19;20033;-76
2023/05/12 04:21:15;;;;;;;33.38;15.35;;;8.90;99.90;;;;;;7598979;19;20098;-76
2023/05/12 04:23:54;;;;;;;29.58;15.02;;;9.00;99.90;;;;;;7612559;19;20035;-76
2023/05/12 04:26:30;;;;;;;27.20;14.00;;;9.00;99.90;;;;;;7604631;19;20534;-76
2023/05/12 04:29:03;;;;;;;42.22;17.65;;;9.10;99.90;;;;;;7608902;19;20114;-76
2023/05/12 04:31:37;;;;;;;27.90;13.50;;;9.10;99.90;;;;;;7615275;19;20020;-76
2023/05/12 04:34:10;;;;;;;32.10;15.85;;;9.00;99.90;;;;;;7604977;19;20053;-76
2023/05/12 04:36:43;;;;;;;32.42;15.10;;;9.00;99.90;;;;;;7609460;19;20018;-76
2023/05/12 04:39:16;;;;;;;45.78;16.83;;;9.00;99.90;;;;;;7611110;19;20048;-76
2023/05/12 04:41:49;;;;;;;;;;;9.00;99.90;;;;;;7608914;19;20022;-75
2023/05/12 04:44:23;;;;;;;36.20;16.47;;;8.90;99.90;;;;;;7608980;19;19941;-76
2023/05/12 04:46:56;;;;;;;;;;;8.90;99.90;;;;;;7607483;19;20029;-76
2023/05/12 04:49:29;;;;;;;28.77;14.50;;;8.90;99.90;;;;;;7604607;19;19929;-76
2023/05/12 04:52:04;;;;;;;25.23;14.00;;;9.00;99.90;;;;;;7601626;19;20019;-75
2023/05/12 04:54:37;;;;;;;24.73;14.38;;;9.10;99.90;;;;;;7603360;19;20048;-75
2023/05/12 04:57:10;;;;;;;36.22;15.93;;;9.10;99.90;;;;;;7603181;19;20020;-75
2023/05/12 04:59:43;;;;;;;37.58;16.83;;;9.10;99.90;;;;;;7599248;19;20712;-79
2023/05/12 05:02:16;;;;;;;24.88;14.07;;;9.10;99.90;;;;;;7601844;19;20023;-79
2023/05/12 05:04:49;;;;;;;25.93;14.47;;;9.10;99.90;;;;;;7592242;19;20029;-80
2023/05/12 05:07:22;;;;;;;29.70;14.65;;;9.10;99.90;;;;;;7587820;19;20861;-75
2023/05/12 05:09:54;;;;;;;27.75;15.20;;;9.20;99.90;;;;;;7552651;19;20010;-74
2023/05/12 05:12:27;;;;;;;24.87;13.43;;;9.20;99.90;;;;;;7572482;19;20018;-74
2023/05/12 05:15:00;;;;;;;38.07;16.27;;;9.20;99.90;;;;;;7569926;19;20014;-74
2023/05/12 05:17:33;;;;;;;25.80;13.63;;;9.20;99.90;;;;;;7519360;19;20029;-76
2023/05/12 05:20:06;;;;;;;22.23;13.60;;;9.30;99.90;;;;;;7583582;19;20673;-75
2023/05/12 05:22:44;;;;;;;26.33;14.38;;;9.30;99.90;;;;;;7597256;19;20019;-74
2023/05/12 05:25:18;;;;;;;40.95;18.13;;;9.30;99.90;;;;;;7611107;19;20024;-75
2023/05/12 05:27:51;;;;;;;24.48;13.82;;;9.40;99.90;;;;;;7588760;19;22605;-75
2023/05/12 05:30:24;;;;;;;29.73;15.15;;;9.40;99.90;;;;;;7552681;19;20014;-71
2023/05/12 05:32:57;;;;;;;25.65;14.32;;;9.60;99.90;;;;;;7566760;19;20292;-74
2023/05/12 05:35:30;;;;;;;22.15;12.55;;;9.60;99.90;;;;;;7602423;19;20038;-75
2023/05/12 05:38:03;;;;;;;22.95;13.38;;;9.70;99.90;;;;;;7601852;19;20015;-75
2023/05/12 05:40:36;;;;;;;25.52;13.50;;;9.80;99.90;;;;;;7603977;19;20592;-76
2023/05/12 05:43:23;;;;;;;22.48;12.55;;;9.90;99.90;;;;;;7605428;19;20026;-76
2023/05/12 05:45:57;;;;;;;;;;;9.90;99.90;;;;;;7609535;19;20042;-74
2023/05/12 05:48:30;;;;;;;22.30;12.57;;;9.90;99.90;;;;;;7615854;19;19914;-75
2023/05/12 05:51:05;;;;;;;19.37;11.83;;;10.00;99.90;;;;;;7604101;19;20029;-79
2023/05/12 05:53:37;;;;;;;21.88;12.73;;;10.00;99.90;;;;;;7619786;19;20287;-79
2023/05/12 05:56:10;;;;;;;24.67;13.70;;;10.00;99.90;;;;;;7611717;19;20470;-78
2023/05/12 05:58:43;;;;;;;25.08;14.23;;;10.00;99.90;;;;;;7620299;19;20042;-78
2023/05/12 06:01:16;;;;;;;20.70;12.80;;;10.10;99.90;;;;;;7613172;19;20028;-78
2023/05/12 06:03:49;;;;;;;21.95;12.70;;;10.10;99.90;;;;;;7615162;19;20015;-81
2023/05/12 06:06:24;;;;;;;;;;;10.10;99.90;;;;;;7608009;19;20022;-79
2023/05/12 06:08:57;;;;;;;19.57;11.53;;;10.20;99.90;;;;;;7613206;19;19929;-81
2023/05/12 06:11:31;;;;;;;29.00;13.95;;;10.30;99.90;;;;;;7607327;19;20294;-78
2023/05/12 06:14:04;;;;;;;15.93;10.98;;;10.30;99.90;;;;;;7608021;19;20372;-79
2023/05/12 06:16:38;;;;;;;;;;;10.40;99.90;;;;;;7615364;19;20543;-79
2023/05/12 06:19:12;;;;;;;21.88;12.32;;;10.40;99.90;;;;;;7611601;19;19927;-81
2023/05/12 06:21:45;;;;;;;16.23;10.63;;;10.50;99.90;;;;;;7614309;19;20018;-79
2023/05/12 06:24:18;;;;;;;18.40;11.45;;;10.50;99.90;;;;;;7609837;19;20015;-79
2023/05/12 06:26:51;;;;;;;17.42;10.70;;;10.50;99.90;;;;;;7616755;19;20025;-78
2023/05/12 06:29:23;;;;;;;18.17;10.32;;;10.40;99.90;;;;;;7609569;19;20018;-80
2023/05/12 06:31:57;;;;;;;16.35;9.65;;;10.40;99.90;;;;;;7615720;19;20017;-78
2023/05/12 06:34:29;;;;;;;;;;;10.50;99.90;;;;;;7611087;19;20015;-82
2023/05/12 06:37:02;;;;;;;16.48;9.57;;;10.60;99.90;;;;;;7615179;19;20305;-79
2023/05/12 06:39:34;;;;;;;18.17;11.55;;;10.70;99.90;;;;;;7612332;19;20021;-79
2023/05/12 06:42:07;;;;;;;12.80;8.82;;;10.70;99.90;;;;;;7608236;19;20014;-78
2023/05/12 06:44:47;;;;;;;12.77;9.10;;;10.80;99.90;;;;;;7617035;19;20014;-80
2023/05/12 06:47:19;;;;;;;15.80;8.52;;;10.80;99.90;;;;;;7612635;19;20112;-80
2023/05/12 06:49:53;;;;;;;11.65;8.20;;;10.90;99.90;;;;;;7605423;19;20014;-80
2023/05/12 06:52:25;;;;;;;14.20;8.95;;;11.00;99.90;;;;;;7609216;19;20082;-80
2023/05/12 06:54:57;;;;;;;14.55;9.02;;;11.00;99.90;;;;;;7609041;19;20055;-79
2023/05/12 06:57:30;;;;;;;12.05;8.05;;;11.00;99.90;;;;;;7608801;19;20034;-80
2023/05/12 07:00:03;;;;;;;16.02;10.20;;;11.00;99.90;;;;;;7610975;19;20916;-81
2023/05/12 07:02:37;;;;;;;14.73;9.05;;;11.00;99.90;;;;;;7601021;19;20340;-80
2023/05/12 07:05:09;;;;;;;13.83;9.07;;;11.00;99.90;;;;;;7604540;19;20014;-83
2023/05/12 07:07:42;;;;;;;14.23;7.25;;;11.00;99.90;;;;;;7597488;19;20110;-79
2023/05/12 07:10:15;;;;;;;10.03;7.23;;;11.10;99.90;;;;;;7602454;19;20361;-79
2023/05/12 07:12:47;;;;;;;8.63;6.82;;;11.10;99.90;;;;;;7605477;19;20395;-79
2023/05/12 07:15:20;;;;;;;8.52;6.38;;;11.10;99.90;;;;;;7604097;19;20023;-79
2023/05/12 07:17:54;;;;;;;9.20;7.05;;;11.20;99.90;;;;;;7594631;19;20534;-80
2023/05/12 07:20:27;;;;;;;12.18;7.03;;;11.20;99.90;;;;;;7600795;19;20686;-79
2023/05/12 07:22:59;;;;;;;8.52;6.45;;;11.20;99.90;;;;;;7609158;19;20530;-79
2023/05/12 07:25:32;;;;;;;11.65;7.38;;;11.40;99.90;;;;;;7617517;19;20039;-80
2023/05/12 07:28:04;;;;;;;7.80;6.03;;;11.50;99.90;;;;;;7610521;19;20026;-80
2023/05/12 07:30:37;;;;;;;8.20;5.60;;;11.70;99.90;;;;;;7614093;19;20829;-80
2023/05/12 07:33:10;;;;;;;10.52;5.82;;;11.70;99.90;;;;;;7611088;19;20098;-78
2023/05/12 07:35:43;;;;;;;6.18;5.18;;;11.80;99.90;;;;;;7615424;19;20023;-82
2023/05/12 07:38:16;;;;;;;10.00;5.22;;;11.90;99.90;;;;;;7617308;19;20034;-80
2023/05/12 07:40:50;;;;;;;8.63;5.25;;;11.90;99.90;;;;;;7616050;19;20064;-82
2023/05/12 07:43:22;;;;;;;12.55;6.05;;;11.90;99.90;;;;;;7614921;19;20025;-81
2023/05/12 07:45:55;;;;;;;5.72;3.65;;;11.90;99.90;;;;;;7619431;19;20018;-80
2023/05/12 07:48:27;;;;;;;4.90;3.45;;;11.90;99.90;;;;;;7616798;19;20015;-78
2023/05/12 07:51:00;;;;;;;5.50;3.70;;;11.80;99.90;;;;;;7616495;19;20082;-80
2023/05/12 07:53:32;;;;;;;4.90;4.07;;;11.90;99.90;;;;;;7615795;19;20370;-79
2023/05/12 07:56:06;;;;;;;9.13;5.18;;;11.90;99.90;;;;;;7610381;19;20503;-80
2023/05/12 07:58:39;;;;;;;5.63;4.70;;;12.10;99.90;;;;;;7625207;19;20013;-79
2023/05/12 08:01:12;;;;;;;8.52;4.93;;;12.10;99.90;;;;;;7620817;19;20682;-80
2023/05/12 08:03:44;;;;;;;6.00;4.32;;;12.30;99.90;;;;;;7623446;19;20035;-79
2023/05/12 08:06:17;;;;;;;5.50;3.67;;;12.50;99.90;;;;;;7607420;19;20238;-80
2023/05/12 08:08:49;;;;;;;4.80;3.77;;;12.60;99.90;;;;;;7624001;19;20123;-79
2023/05/12 08:11:22;;;;;;;3.58;2.85;;;12.70;99.90;;;;;;7608362;19;20026;-80
2023/05/12 08:13:54;;;;;;;4.97;3.03;;;12.80;99.90;;;;;;7621600;19;20019;-81
2023/05/12 08:16:27;;;;;;;4.65;3.55;;;12.80;99.90;;;;;;7616588;19;20031;-80
2023/05/12 08:19:00;;;;;;;;;;;12.80;99.90;;;;;;7621835;19;20050;-79
2023/05/12 08:21:32;;;;;;;4.57;3.75;;;12.80;99.90;;;;;;7472614;19;2832585;-79
2023/05/12 08:24:05;;;;;;;4.00;3.10;;;12.70;99.90;;;;;;7630643;19;20649;-80
2023/05/12 08:26:37;;;;;;;4.00;2.80;;;12.70;99.90;;;;;;7627128;19;20044;-79
2023/05/12 08:29:10;;;;;;;4.63;2.75;;;12.70;99.90;;;;;;7637337;19;20023;-76
2023/05/12 08:31:43;;;;;;;6.20;2.90;;;12.70;99.90;;;;;;7630249;19;20019;-76
2023/05/12 08:34:16;;;;;;;2.63;2.30;;;12.70;99.90;;;;;;7637529;19;20014;-75
2023/05/12 08:36:48;;;;;;;6.10;3.10;;;12.70;99.90;;;;;;7640481;19;20014;-74
2023/05/12 08:39:20;;;;;;;3.28;2.55;;;12.70;99.90;;;;;;7631064;19;20108;-75
2023/05/12 08:41:58;;;;;;;3.55;2.83;;;12.60;99.90;;;;;;7635230;19;20779;-76
2023/05/12 08:44:31;;;;;;;4.15;3.10;;;12.50;99.90;;;;;;7635444;19;20022;-76
2023/05/12 08:47:05;;;;;;;3.88;3.05;;;12.60;99.90;;;;;;7630907;19;20059;-74
2023/05/12 08:49:39;;;;;;;3.88;2.78;;;12.60;99.90;;;;;;7628639;19;20015;-75
2023/05/12 08:52:13;;;;;;;6.68;3.13;;;12.60;99.90;;;;;;7625206;19;20011;-74
2023/05/12 08:54:46;;;;;;;5.50;3.40;;;12.60;99.90;;;;;;7621840;19;20126;-75
2023/05/12 08:57:27;;;;;;;3.45;2.95;;;12.70;99.90;;;;;;7618045;19;20010;-76
2023/05/12 09:00:03;;;;;;;2.75;2.53;;;12.60;99.90;;;;;;7622943;19;20029;-76
2023/05/12 09:02:42;;;;;;;2.03;1.75;;;12.60;99.90;;;;;;7621940;19;20061;-75
2023/05/12 09:05:28;;;;;;;2.35;1.70;;;12.70;99.90;;;;;;7615774;19;20026;-73
2023/05/12 09:08:01;;;;;;;2.10;1.63;;;12.60;99.90;;;;;;7620724;19;20588;-70
2023/05/12 09:10:35;;;;;;;2.10;1.70;;;12.60;99.90;;;;;;7617412;19;20018;-74
2023/05/12 09:13:12;;;;;;;;;;;12.60;99.90;;;;;;7627203;19;20018;-75
2023/05/12 09:15:47;;;;;;;3.03;1.30;;;12.50;99.90;;;;;;7617495;19;19915;-75
2023/05/12 09:18:20;;;;;;;1.60;1.35;;;12.50;99.90;;;;;;7614760;19;20074;-71
2023/05/12 09:20:52;;;;;;;2.40;1.80;;;12.60;99.90;;;;;;7613865;19;20022;-74
2023/05/12 09:23:24;;;;;;;2.10;1.70;;;12.60;99.90;;;;;;7619295;19;20081;-76
2023/05/12 09:26:00;;;;;;;2.22;1.55;;;12.60;99.90;;;;;;7614059;19;20998;-76
2023/05/12 09:28:39;;;;;;;2.13;1.80;;;12.60;99.90;;;;;;7618653;19;20642;-74
2023/05/12 09:31:19;;;;;;;2.65;2.08;;;12.60;99.90;;;;;;7625712;19;20466;-73
2023/05/12 09:33:52;;;;;;;3.58;2.22;;;12.60;99.90;;;;;;7627549;19;20017;-75
2023/05/12 09:36:26;;;;;;;2.50;1.63;;;12.60;99.90;;;;;;7621010;19;20031;-75
2023/05/12 09:39:05;;;;;;;3.30;1.73;;;12.60;99.90;;;;;;7626054;19;20019;-73
2023/05/12 09:41:39;;;;;;;3.65;1.70;;;12.50;99.90;;;;;;7628224;19;20043;-75
2023/05/12 09:44:17;;;;;;;3.58;1.83;;;12.60;99.90;;;;;;7623710;19;20523;-76
2023/05/12 09:46:50;;;;;;;2.00;1.77;;;12.60;99.90;;;;;;7621708;19;20018;-75
2023/05/12 09:49:25;;;;;;;2.35;2.00;;;12.60;99.90;;;;;;7625284;19;20018;-73
2023/05/12 09:51:58;;;;;;;2.38;1.80;;;12.70;99.90;;;;;;7623336;19;20039;-73
2023/05/12 09:54:33;;;;;;;2.20;1.58;;;12.70;99.90;;;;;;7619952;19;20018;-75
2023/05/12 09:57:09;;;;;;;1.50;1.40;;;12.80;99.90;;;;;;7617639;19;20815;-73
2023/05/12 09:59:43;;;;;;;8.05;1.50;;;12.80;99.90;;;;;;7621146;19;20022;-74
2023/05/12 10:02:17;;;;;;;2.00;1.40;;;12.80;99.90;;;;;;7604896;19;20011;-75
2023/05/12 10:04:55;;;;;;;3.22;1.23;;;12.80;99.90;;;;;;7615207;19;20026;-75
2023/05/12 10:07:28;;;;;;;1.55;1.20;;;12.90;99.90;;;;;;7609437;19;20018;-75
2023/05/12 10:10:03;;;;;;;8.63;2.10;;;12.90;99.90;;;;;;7614102;19;20554;-73
2023/05/12 10:12:36;;;;;;;1.58;1.30;;;12.90;99.90;;;;;;7614651;19;20018;-76
2023/05/12 10:15:10;;;;;;;1.52;1.30;;;12.90;99.90;;;;;;7616734;19;20032;-79
2023/05/12 10:17:43;;;;;;;2.97;1.38;;;13.00;99.90;;;;;;7611161;19;20019;-78
2023/05/12 10:20:17;;;;;;;4.07;1.40;;;13.00;99.90;;;;;;7618502;19;20672;-77
2023/05/12 10:22:51;;;;;;;2.25;1.70;;;13.10;99.90;;;;;;7631260;19;20034;-78
2023/05/12 10:25:23;;;;;;;1.42;1.30;;;13.10;99.90;;;;;;7618478;19;20022;-78
2023/05/12 10:27:57;;;;;;;2.72;1.77;;;13.20;99.90;;;;;;7615467;19;20042;-79
2023/05/12 10:30:30;;;;;;;2.05;1.77;;;13.20;99.90;;;;;;7606585;19;20554;-79
2023/05/12 10:33:04;;;;;;;2.20;1.65;;;13.30;99.90;;;;;;7617233;19;20566;-75
2023/05/12 10:35:38;;;;;;;1.40;1.30;;;13.30;99.90;;;;;;7613314;19;20761;-77
2023/05/12 10:38:15;;;;;;;3.20;1.50;;;13.30;99.90;;;;;;7618019;19;20090;-77
2023/05/12 10:40:58;;;;;;;3.78;1.90;;;13.40;99.90;;;;;;7613231;19;20684;-77
2023/05/12 10:43:41;;;;;;;2.38;1.67;;;13.50;99.90;;;;;;7617709;19;20022;-77
2023/05/12 10:46:20;;;;;;;1.60;1.50;;;13.50;99.90;;;;;;7616705;19;20016;-77
2023/05/12 10:49:06;;;;;;;2.15;1.90;;;13.60;99.90;;;;;;7617555;19;20046;-77
2023/05/12 10:51:41;;;;;;;1.90;1.40;;;13.60;99.90;;;;;;7614543;19;20010;-78
2023/05/12 10:54:20;;;;;;;2.03;1.10;;;13.60;99.90;;;;;;7615274;19;20051;-77
2023/05/12 10:56:58;;;;;;;1.98;1.10;;;13.50;99.90;;;;;;7616323;19;20267;-77
2023/05/12 10:59:31;;;;;;;4.80;0.98;;;13.50;99.90;;;;;;7612997;19;20022;-77
2023/05/12 11:02:13;;;;;;;1.70;0.98;;;13.40;99.90;;;;;;7614879;19;20048;-77
2023/05/12 11:04:49;;;;;;;1.17;1.08;;;13.40;99.90;;;;;;7609051;19;20296;-75
2023/05/12 11:07:28;;;;;;;0.85;0.60;;;13.30;99.90;;;;;;7616347;19;20018;-75
2023/05/12 11:10:03;;;;;;;1.42;0.90;;;13.30;99.90;;;;;;7615594;19;20043;-75
2023/05/12 11:12:37;;;;;;;6.88;0.80;;;13.30;99.90;;;;;;7618201;19;20445;-75
2023/05/12 11:15:11;;;;;;;1.02;0.80;;;13.30;99.90;;;;;;7614219;19;20033;-75
2023/05/12 11:17:43;;;;;;;1.98;1.15;;;13.20;99.90;;;;;;7612026;19;20196;-75
2023/05/12 11:20:23;;;;;;;1.75;0.95;;;13.30;99.90;;;;;;7595696;19;20062;-74
2023/05/12 11:22:56;;;;;;;1.48;1.10;;;13.30;99.90;;;;;;7608785;19;20030;-75
2023/05/12 11:25:28;;;;;;;1.45;0.93;;;13.30;99.90;;;;;;7606912;19;20030;-75
2023/05/12 11:28:01;;;;;;;1.87;0.90;;;13.40;99.90;;;;;;7607209;19;20019;-74
2023/05/12 11:30:33;;;;;;;1.45;1.00;;;13.40;99.90;;;;;;7602093;19;20028;-74
2023/05/12 11:33:05;;;;;;;1.08;0.95;;;13.40;99.90;;;;;;7610486;19;20379;-75
2023/05/12 11:35:37;;;;;;;1.83;1.40;;;13.50;99.90;;;;;;7605846;19;20019;-75
2023/05/12 11:38:20;;;;;;;1.00;0.93;;;13.40;99.90;;;;;;7596659;19;20015;-75
2023/05/12 11:40:52;;;;;;;1.65;1.10;;;13.50;99.90;;;;;;7600188;19;20506;-75
2023/05/12 11:43:26;;;;;;;1.40;1.08;;;13.60;99.90;;;;;;7606211;19;20389;-75
2023/05/12 11:45:59;;;;;;;3.05;1.10;;;13.60;99.90;;;;;;7589611;19;20022;-74
2023/05/12 11:48:34;;;;;;;1.73;0.80;;;13.70;99.90;;;;;;7585021;19;20018;-75
2023/05/12 11:51:07;;;;;;;1.52;1.02;;;13.80;99.90;;;;;;7597353;19;20039;-73
2023/05/12 11:53:40;;;;;;;1.20;1.10;;;13.90;99.90;;;;;;7600745;19;20030;-74
2023/05/12 11:56:23;;;;;;;4.75;1.52;;;13.90;99.90;;;;;;7602911;19;20491;-73
2023/05/12 11:58:56;;;;;;;1.60;1.02;;;13.80;99.90;;;;;;7580843;19;20014;-73
2023/05/12 12:01:29;;;;;;;1.58;1.23;;;13.70;99.90;;;;;;7597965;19;20018;-73
2023/05/12 12:04:01;;;;;;;2.17;1.13;;;13.70;99.90;;;;;;7603433;19;21247;-73
2023/05/12 12:06:44;;;;;;;1.45;1.35;;;13.70;99.90;;;;;;7596981;19;21949;-74
2023/05/12 12:09:17;;;;;;;2.03;1.48;;;13.60;99.90;;;;;;7597488;19;21042;-73
2023/05/12 12:11:50;;;;;;;2.25;1.10;;;13.60;99.90;;;;;;7598274;19;20633;-73
2023/05/12 12:14:22;;;;;;;1.77;1.13;;;13.60;99.90;;;;;;7602370;19;20025;-73
2023/05/12 12:16:54;;;;;;;2.20;1.05;;;13.70;99.90;;;;;;7595786;19;20027;-73
2023/05/12 12:19:27;;;;;;;1.05;0.90;;;13.70;99.90;;;;;;7597321;19;20022;-73
2023/05/12 12:22:00;;;;;;;1.17;1.05;;;13.70;99.90;;;;;;7593637;19;20053;-73
2023/05/12 12:24:32;;;;;;;1.65;1.10;;;13.80;99.90;;;;;;7589907;19;20010;-73
2023/05/12 12:27:04;;;;;;;0.98;0.88;;;13.90;99.90;;;;;;7588378;19;20015;-74
2023/05/12 12:29:37;;;;;;;2.88;1.33;;;13.90;99.90;;;;;;7596058;19;20011;-73
2023/05/12 12:32:09;;;;;;;2.22;1.70;;;14.00;99.90;;;;;;7599131;19;20097;-73
2023/05/12 12:34:43;;;;;;;6.50;2.65;;;14.00;99.90;;;;;;7599822;19;21104;-73
2023/05/12 12:37:16;;;;;;;5.25;2.30;;;14.10;99.90;;;;;;7596586;19;20061;-73
2023/05/12 12:39:49;;;;;;;2.78;2.20;;;14.20;99.90;;;;;;7601074;19;20061;-73
2023/05/12 12:42:21;;;;;;;2.78;2.25;;;14.30;99.90;;;;;;7607517;19;20021;-73
2023/05/12 12:44:53;;;;;;;3.42;2.50;;;14.40;99.90;;;;;;7604276;19;20048;-74
2023/05/12 12:47:26;;;;;;;4.93;2.95;;;14.50;99.90;;;;;;7606812;19;20567;-74
2023/05/12 12:49:58;;;;;;;6.20;2.95;;;14.60;99.90;;;;;;7599908;19;20018;-74
2023/05/12 12:52:31;;;;;;;6.00;3.38;;;14.60;99.90;;;;;;7607599;19;20009;-74
2023/05/12 12:55:05;;;;;;;6.57;3.95;;;14.70;99.90;;;;;;7614219;19;20608;-74
2023/05/12 12:57:37;;;;;;;4.22;3.15;;;14.70;99.90;;;;;;7630534;19;20030;-74
2023/05/12 13:00:10;;;;;;;11.05;3.45;;;14.70;99.90;;;;;;7625610;19;20020;-73
2023/05/12 13:02:43;;;;;;;4.32;3.47;;;14.80;99.90;;;;;;7613865;19;20030;-73
2023/05/12 13:05:16;;;;;;;3.55;2.60;;;14.80;99.90;;;;;;7615160;19;20018;-73
2023/05/12 13:07:50;;;;;;;3.50;2.53;;;14.80;99.90;;;;;;7610514;19;20017;-73
2023/05/12 13:10:24;;;;;;;4.40;3.05;;;14.90;99.90;;;;;;7616416;19;20317;-73
2023/05/12 13:12:56;;;;;;;7.60;3.08;;;14.90;99.90;;;;;;7618322;19;20018;-74
2023/05/12 13:15:31;;;;;;;4.43;3.40;;;15.00;99.90;;;;;;7618354;19;20022;-74
2023/05/12 13:18:03;;;;;;;6.65;3.90;;;14.90;99.90;;;;;;7616708;19;20051;-73